sensor_id;sensor_type;location;lat;lon;timestamp;P1;durP1;ratioP1;P2;durP2;ratioP2
71800;SDS011;59647;55.838;37.292;2024-03-02T00:01:55;35.20;;;17.85;;
71800;SDS011;59647;55.838;37.292;2024-03-02T00:04:20;40.75;;;17.02;;
71800;SDS011;59647;55.838;37.292;2024-03-02T00:06:46;65.57;;;25.17;;
71800;SDS011;59647;55.838;37.292;2024-03-02T00:09:12;51.90;;;22.40;;
71800;SDS011;59647;55.838;37.292;2024-03-02T00:11:38;50.67;;;20.40;;
71800;SDS011;59647;55.838;37.292;2024-03-02T00:14:04;53.63;;;21.65;;
71800;SDS011;59647;55.838;37.292;2024-03-02T00:16:30;48.45;;;20.65;;
71800;SDS011;59647;55.838;37.292;2024-03-02T00:19:00;40.10;;;18.05;;
71800;SDS011;59647;55.838;37.292;2024-03-02T00:21:26;45.70;;;21.20;;
71800;SDS011;59647;55.838;37.292;2024-03-02T00:23:53;44.78;;;20.25;;
71800;SDS011;59647;55.838;37.292;2024-03-02T00:26:18;49.35;;;21.10;;
71800;SDS011;59647;55.838;37.292;2024-03-02T00:28:44;47.42;;;21.58;;
71800;SDS011;59647;55.838;37.292;2024-03-02T00:33:43;43.72;;;19.88;;
71800;SDS011;59647;55.838;37.292;2024-03-02T00:36:09;43.40;;;19.38;;
71800;SDS011;59647;55.838;37.292;2024-03-02T00:38:45;39.95;;;20.17;;
71800;SDS011;59647;55.838;37.292;2024-03-02T00:41:15;52.50;;;21.67;;
71800;SDS011;59647;55.838;37.292;2024-03-02T00:43:42;53.60;;;22.83;;
71800;SDS011;59647;55.838;37.292;2024-03-02T00:46:09;44.72;;;20.70;;
71800;SDS011;59647;55.838;37.292;2024-03-02T00:48:36;49.42;;;22.40;;
71800;SDS011;59647;55.838;37.292;2024-03-02T00:51:03;42.03;;;19.10;;
71800;SDS011;59647;55.838;37.292;2024-03-02T00:53:32;46.25;;;21.05;;
71800;SDS011;59647;55.838;37.292;2024-03-02T00:56:00;50.00;;;23.00;;
71800;SDS011;59647;55.838;37.292;2024-03-02T00:58:26;54.70;;;23.63;;
71800;SDS011;59647;55.838;37.292;2024-03-02T01:00:52;53.63;;;24.02;;
71800;SDS011;59647;55.838;37.292;2024-03-02T01:03:17;54.78;;;25.73;;
71800;SDS011;59647;55.838;37.292;2024-03-02T01:05:44;52.40;;;23.65;;
71800;SDS011;59647;55.838;37.292;2024-03-02T01:08:10;46.30;;;20.92;;
71800;SDS011;59647;55.838;37.292;2024-03-02T01:10:36;45.95;;;21.27;;
71800;SDS011;59647;55.838;37.292;2024-03-02T01:13:02;56.40;;;23.27;;
71800;SDS011;59647;55.838;37.292;2024-03-02T01:15:28;59.95;;;24.85;;
71800;SDS011;59647;55.838;37.292;2024-03-02T01:17:53;52.25;;;23.50;;
71800;SDS011;59647;55.838;37.292;2024-03-02T01:20:19;53.42;;;21.75;;
71800;SDS011;59647;55.838;37.292;2024-03-02T01:22:45;49.10;;;22.33;;
71800;SDS011;59647;55.838;37.292;2024-03-02T01:25:11;55.30;;;24.35;;
71800;SDS011;59647;55.838;37.292;2024-03-02T01:27:36;49.33;;;20.58;;
71800;SDS011;59647;55.838;37.292;2024-03-02T01:30:02;50.67;;;21.20;;
71800;SDS011;59647;55.838;37.292;2024-03-02T01:32:29;53.30;;;24.40;;
71800;SDS011;59647;55.838;37.292;2024-03-02T01:34:55;44.97;;;18.83;;
71800;SDS011;59647;55.838;37.292;2024-03-02T01:37:21;50.10;;;21.05;;
71800;SDS011;59647;55.838;37.292;2024-03-02T01:39:47;49.63;;;19.67;;
71800;SDS011;59647;55.838;37.292;2024-03-02T01:42:12;45.35;;;20.55;;
71800;SDS011;59647;55.838;37.292;2024-03-02T01:44:39;46.40;;;19.23;;
71800;SDS011;59647;55.838;37.292;2024-03-02T01:47:05;44.08;;;19.85;;
71800;SDS011;59647;55.838;37.292;2024-03-02T01:49:31;38.35;;;19.02;;
71800;SDS011;59647;55.838;37.292;2024-03-02T01:51:58;59.33;;;21.35;;
71800;SDS011;59647;55.838;37.292;2024-03-02T01:54:23;37.10;;;18.45;;
71800;SDS011;59647;55.838;37.292;2024-03-02T01:56:49;42.72;;;19.92;;
71800;SDS011;59647;55.838;37.292;2024-03-02T01:59:15;43.65;;;20.45;;
71800;SDS011;59647;55.838;37.292;2024-03-02T02:01:40;49.00;;;21.35;;
71800;SDS011;59647;55.838;37.292;2024-03-02T02:04:06;54.88;;;20.27;;
71800;SDS011;59647;55.838;37.292;2024-03-02T02:06:32;52.63;;;21.83;;
71800;SDS011;59647;55.838;37.292;2024-03-02T02:08:58;43.55;;;19.88;;
71800;SDS011;59647;55.838;37.292;2024-03-02T02:11:24;45.65;;;20.58;;
71800;SDS011;59647;55.838;37.292;2024-03-02T02:13:50;45.97;;;19.98;;
71800;SDS011;59647;55.838;37.292;2024-03-02T02:16:16;46.55;;;20.42;;
71800;SDS011;59647;55.838;37.292;2024-03-02T02:18:42;45.63;;;20.95;;
71800;SDS011;59647;55.838;37.292;2024-03-02T02:21:08;40.15;;;20.85;;
71800;SDS011;59647;55.838;37.292;2024-03-02T02:23:33;51.33;;;20.45;;
71800;SDS011;59647;55.838;37.292;2024-03-02T02:25:59;48.13;;;19.83;;
71800;SDS011;59647;55.838;37.292;2024-03-02T02:28:25;42.50;;;18.65;;
71800;SDS011;59647;55.838;37.292;2024-03-02T02:30:51;44.45;;;18.95;;
71800;SDS011;59647;55.838;37.292;2024-03-02T02:33:17;40.90;;;18.75;;
71800;SDS011;59647;55.838;37.292;2024-03-02T02:35:43;42.00;;;17.77;;
71800;SDS011;59647;55.838;37.292;2024-03-02T02:38:08;41.17;;;18.65;;
71800;SDS011;59647;55.838;37.292;2024-03-02T02:40:34;46.00;;;19.83;;
71800;SDS011;59647;55.838;37.292;2024-03-02T02:43:00;49.85;;;20.95;;
71800;SDS011;59647;55.838;37.292;2024-03-02T02:45:25;60.10;;;24.02;;
71800;SDS011;59647;55.838;37.292;2024-03-02T02:47:51;49.08;;;22.83;;
71800;SDS011;59647;55.838;37.292;2024-03-02T02:50:17;53.55;;;21.77;;
71800;SDS011;59647;55.838;37.292;2024-03-02T02:52:42;44.63;;;20.48;;
71800;SDS011;59647;55.838;37.292;2024-03-02T02:55:09;52.88;;;22.27;;
71800;SDS011;59647;55.838;37.292;2024-03-02T02:57:35;53.17;;;20.92;;
71800;SDS011;59647;55.838;37.292;2024-03-02T03:00:06;49.95;;;20.73;;
71800;SDS011;59647;55.838;37.292;2024-03-02T03:02:38;58.25;;;21.70;;
71800;SDS011;59647;55.838;37.292;2024-03-02T03:05:07;48.10;;;20.42;;
71800;SDS011;59647;55.838;37.292;2024-03-02T03:07:33;50.55;;;22.52;;
71800;SDS011;59647;55.838;37.292;2024-03-02T03:10:02;52.33;;;23.20;;
71800;SDS011;59647;55.838;37.292;2024-03-02T03:12:30;48.10;;;20.83;;
71800;SDS011;59647;55.838;37.292;2024-03-02T03:14:56;52.83;;;22.38;;
71800;SDS011;59647;55.838;37.292;2024-03-02T03:17:22;57.50;;;22.85;;
71800;SDS011;59647;55.838;37.292;2024-03-02T03:19:49;46.97;;;20.98;;
71800;SDS011;59647;55.838;37.292;2024-03-02T03:22:14;53.25;;;23.77;;
71800;SDS011;59647;55.838;37.292;2024-03-02T03:24:40;47.55;;;21.50;;
71800;SDS011;59647;55.838;37.292;2024-03-02T03:27:06;51.60;;;22.98;;
71800;SDS011;59647;55.838;37.292;2024-03-02T03:29:32;62.80;;;23.67;;
71800;SDS011;59647;55.838;37.292;2024-03-02T03:31:57;55.83;;;22.23;;
71800;SDS011;59647;55.838;37.292;2024-03-02T03:34:23;55.58;;;22.60;;
71800;SDS011;59647;55.838;37.292;2024-03-02T03:36:49;55.53;;;22.63;;
71800;SDS011;59647;55.838;37.292;2024-03-02T03:39:14;54.17;;;22.92;;
71800;SDS011;59647;55.838;37.292;2024-03-02T03:41:40;59.00;;;23.95;;
71800;SDS011;59647;55.838;37.292;2024-03-02T03:44:06;54.53;;;22.20;;
71800;SDS011;59647;55.838;37.292;2024-03-02T03:46:32;49.22;;;21.13;;
71800;SDS011;59647;55.838;37.292;2024-03-02T03:48:57;51.95;;;21.90;;
71800;SDS011;59647;55.838;37.292;2024-03-02T03:51:23;58.35;;;23.38;;
71800;SDS011;59647;55.838;37.292;2024-03-02T03:53:49;54.38;;;22.05;;
71800;SDS011;59647;55.838;37.292;2024-03-02T03:56:14;60.45;;;24.83;;
71800;SDS011;59647;55.838;37.292;2024-03-02T03:58:40;51.08;;;22.73;;
71800;SDS011;59647;55.838;37.292;2024-03-02T04:01:06;51.03;;;21.70;;
71800;SDS011;59647;55.838;37.292;2024-03-02T04:03:31;53.05;;;21.48;;
71800;SDS011;59647;55.838;37.292;2024-03-02T04:05:57;38.90;;;16.98;;
71800;SDS011;59647;55.838;37.292;2024-03-02T04:08:23;40.50;;;17.85;;
71800;SDS011;59647;55.838;37.292;2024-03-02T04:10:48;59.55;;;21.88;;
71800;SDS011;59647;55.838;37.292;2024-03-02T04:13:14;49.20;;;20.55;;
71800;SDS011;59647;55.838;37.292;2024-03-02T04:15:39;53.45;;;22.27;;
71800;SDS011;59647;55.838;37.292;2024-03-02T04:18:06;50.95;;;21.23;;
71800;SDS011;59647;55.838;37.292;2024-03-02T04:20:31;56.78;;;22.08;;
71800;SDS011;59647;55.838;37.292;2024-03-02T04:22:57;53.35;;;21.55;;
71800;SDS011;59647;55.838;37.292;2024-03-02T04:25:23;53.72;;;21.73;;
71800;SDS011;59647;55.838;37.292;2024-03-02T04:27:48;52.80;;;22.70;;
71800;SDS011;59647;55.838;37.292;2024-03-02T04:30:14;52.30;;;21.58;;
71800;SDS011;59647;55.838;37.292;2024-03-02T04:32:40;48.72;;;21.13;;
71800;SDS011;59647;55.838;37.292;2024-03-02T04:35:06;52.05;;;22.45;;
71800;SDS011;59647;55.838;37.292;2024-03-02T04:37:34;57.17;;;23.58;;
71800;SDS011;59647;55.838;37.292;2024-03-02T04:39:59;47.72;;;22.10;;
71800;SDS011;59647;55.838;37.292;2024-03-02T04:42:25;47.28;;;21.13;;
71800;SDS011;59647;55.838;37.292;2024-03-02T04:44:51;58.85;;;22.08;;
71800;SDS011;59647;55.838;37.292;2024-03-02T04:47:17;63.13;;;23.17;;
71800;SDS011;59647;55.838;37.292;2024-03-02T04:49:42;54.67;;;22.58;;
71800;SDS011;59647;55.838;37.292;2024-03-02T04:52:08;55.08;;;21.70;;
71800;SDS011;59647;55.838;37.292;2024-03-02T04:54:34;52.72;;;22.95;;
71800;SDS011;59647;55.838;37.292;2024-03-02T04:57:20;57.03;;;23.38;;
71800;SDS011;59647;55.838;37.292;2024-03-02T04:59:46;52.42;;;21.33;;
71800;SDS011;59647;55.838;37.292;2024-03-02T05:02:11;56.22;;;22.35;;
71800;SDS011;59647;55.838;37.292;2024-03-02T05:04:39;63.17;;;23.50;;
71800;SDS011;59647;55.838;37.292;2024-03-02T05:07:05;65.47;;;24.48;;
71800;SDS011;59647;55.838;37.292;2024-03-02T05:09:31;61.20;;;23.60;;
71800;SDS011;59647;55.838;37.292;2024-03-02T05:11:56;63.63;;;23.25;;
71800;SDS011;59647;55.838;37.292;2024-03-02T05:14:45;52.75;;;21.40;;
71800;SDS011;59647;55.838;37.292;2024-03-02T05:17:11;61.72;;;25.63;;
71800;SDS011;59647;55.838;37.292;2024-03-02T05:19:37;61.83;;;22.70;;
71800;SDS011;59647;55.838;37.292;2024-03-02T05:22:03;57.33;;;23.20;;
71800;SDS011;59647;55.838;37.292;2024-03-02T05:24:29;56.83;;;24.27;;
71800;SDS011;59647;55.838;37.292;2024-03-02T05:26:54;52.35;;;23.70;;
71800;SDS011;59647;55.838;37.292;2024-03-02T05:29:20;52.70;;;23.50;;
71800;SDS011;59647;55.838;37.292;2024-03-02T05:31:47;53.92;;;22.27;;
71800;SDS011;59647;55.838;37.292;2024-03-02T05:34:12;58.10;;;25.35;;
71800;SDS011;59647;55.838;37.292;2024-03-02T05:36:38;64.63;;;26.13;;
71800;SDS011;59647;55.838;37.292;2024-03-02T05:39:04;65.55;;;25.55;;
71800;SDS011;59647;55.838;37.292;2024-03-02T05:41:31;56.90;;;24.73;;
71800;SDS011;59647;55.838;37.292;2024-03-02T05:43:57;52.30;;;24.55;;
71800;SDS011;59647;55.838;37.292;2024-03-02T05:46:23;60.05;;;24.55;;
71800;SDS011;59647;55.838;37.292;2024-03-02T05:48:49;59.75;;;24.27;;
71800;SDS011;59647;55.838;37.292;2024-03-02T05:51:14;62.55;;;26.08;;
71800;SDS011;59647;55.838;37.292;2024-03-02T05:53:40;70.00;;;28.77;;
71800;SDS011;59647;55.838;37.292;2024-03-02T05:56:06;75.35;;;27.90;;
71800;SDS011;59647;55.838;37.292;2024-03-02T05:58:32;73.18;;;28.35;;
71800;SDS011;59647;55.838;37.292;2024-03-02T06:01:03;69.15;;;30.85;;
71800;SDS011;59647;55.838;37.292;2024-03-02T06:03:31;78.95;;;30.50;;
71800;SDS011;59647;55.838;37.292;2024-03-02T06:05:57;69.50;;;27.90;;
71800;SDS011;59647;55.838;37.292;2024-03-02T06:08:22;73.72;;;30.55;;
71800;SDS011;59647;55.838;37.292;2024-03-02T06:10:48;66.75;;;28.80;;
71800;SDS011;59647;55.838;37.292;2024-03-02T06:13:14;74.95;;;32.15;;
71800;SDS011;59647;55.838;37.292;2024-03-02T06:15:40;78.72;;;32.50;;
71800;SDS011;59647;55.838;37.292;2024-03-02T06:18:06;75.00;;;31.73;;
71800;SDS011;59647;55.838;37.292;2024-03-02T06:20:33;78.97;;;33.67;;
71800;SDS011;59647;55.838;37.292;2024-03-02T06:22:59;79.78;;;35.00;;
71800;SDS011;59647;55.838;37.292;2024-03-02T06:25:25;80.10;;;33.03;;
71800;SDS011;59647;55.838;37.292;2024-03-02T06:27:50;71.15;;;31.80;;
71800;SDS011;59647;55.838;37.292;2024-03-02T06:30:16;80.40;;;35.38;;
71800;SDS011;59647;55.838;37.292;2024-03-02T06:32:42;89.50;;;33.30;;
71800;SDS011;59647;55.838;37.292;2024-03-02T06:35:07;79.38;;;35.78;;
71800;SDS011;59647;55.838;37.292;2024-03-02T06:37:38;84.22;;;35.40;;
71800;SDS011;59647;55.838;37.292;2024-03-02T06:40:07;81.95;;;35.03;;
71800;SDS011;59647;55.838;37.292;2024-03-02T06:42:33;77.05;;;32.90;;
71800;SDS011;59647;55.838;37.292;2024-03-02T06:44:59;67.25;;;30.10;;
71800;SDS011;59647;55.838;37.292;2024-03-02T06:47:25;79.43;;;33.15;;
71800;SDS011;59647;55.838;37.292;2024-03-02T06:49:51;83.40;;;34.65;;
71800;SDS011;59647;55.838;37.292;2024-03-02T06:52:17;74.25;;;33.80;;
71800;SDS011;59647;55.838;37.292;2024-03-02T06:54:42;83.57;;;33.10;;
71800;SDS011;59647;55.838;37.292;2024-03-02T06:57:08;88.32;;;35.97;;
71800;SDS011;59647;55.838;37.292;2024-03-02T06:59:33;86.40;;;36.70;;
71800;SDS011;59647;55.838;37.292;2024-03-02T07:01:59;83.80;;;35.40;;
71800;SDS011;59647;55.838;37.292;2024-03-02T07:04:25;86.05;;;36.90;;
71800;SDS011;59647;55.838;37.292;2024-03-02T07:06:51;77.30;;;35.22;;
71800;SDS011;59647;55.838;37.292;2024-03-02T07:09:17;78.68;;;34.22;;
71800;SDS011;59647;55.838;37.292;2024-03-02T07:11:42;90.38;;;36.20;;
71800;SDS011;59647;55.838;37.292;2024-03-02T07:14:08;85.30;;;35.40;;
71800;SDS011;59647;55.838;37.292;2024-03-02T07:16:36;75.63;;;34.28;;
71800;SDS011;59647;55.838;37.292;2024-03-02T07:19:03;85.10;;;35.60;;
71800;SDS011;59647;55.838;37.292;2024-03-02T07:21:29;82.82;;;36.53;;
71800;SDS011;59647;55.838;37.292;2024-03-02T07:23:54;85.07;;;37.33;;
71800;SDS011;59647;55.838;37.292;2024-03-02T07:26:20;96.10;;;34.58;;
71800;SDS011;59647;55.838;37.292;2024-03-02T07:28:46;81.15;;;33.33;;
71800;SDS011;59647;55.838;37.292;2024-03-02T07:31:13;88.72;;;38.85;;
71800;SDS011;59647;55.838;37.292;2024-03-02T07:33:39;85.97;;;37.15;;
71800;SDS011;59647;55.838;37.292;2024-03-02T07:36:05;88.88;;;36.80;;
71800;SDS011;59647;55.838;37.292;2024-03-02T07:38:31;83.32;;;35.22;;
71800;SDS011;59647;55.838;37.292;2024-03-02T07:40:57;80.80;;;36.00;;
71800;SDS011;59647;55.838;37.292;2024-03-02T07:43:23;81.15;;;36.75;;
71800;SDS011;59647;55.838;37.292;2024-03-02T07:45:49;74.85;;;33.05;;
71800;SDS011;59647;55.838;37.292;2024-03-02T07:48:15;78.20;;;33.08;;
71800;SDS011;59647;55.838;37.292;2024-03-02T07:50:41;74.95;;;35.05;;
71800;SDS011;59647;55.838;37.292;2024-03-02T07:53:06;72.57;;;32.70;;
71800;SDS011;59647;55.838;37.292;2024-03-02T07:55:35;82.30;;;33.38;;
71800;SDS011;59647;55.838;37.292;2024-03-02T07:58:01;82.68;;;33.63;;
71800;SDS011;59647;55.838;37.292;2024-03-02T08:00:27;76.85;;;32.25;;
71800;SDS011;59647;55.838;37.292;2024-03-02T08:02:53;85.10;;;34.90;;
71800;SDS011;59647;55.838;37.292;2024-03-02T08:05:19;77.95;;;30.75;;
71800;SDS011;59647;55.838;37.292;2024-03-02T08:07:45;75.40;;;33.50;;
71800;SDS011;59647;55.838;37.292;2024-03-02T08:10:30;73.05;;;31.77;;
71800;SDS011;59647;55.838;37.292;2024-03-02T08:12:55;69.53;;;28.50;;
71800;SDS011;59647;55.838;37.292;2024-03-02T08:15:21;86.32;;;33.35;;
71800;SDS011;59647;55.838;37.292;2024-03-02T08:17:47;78.55;;;30.95;;
71800;SDS011;59647;55.838;37.292;2024-03-02T08:20:15;84.78;;;32.58;;
71800;SDS011;59647;55.838;37.292;2024-03-02T08:22:41;71.75;;;30.30;;
71800;SDS011;59647;55.838;37.292;2024-03-02T08:25:07;71.25;;;31.45;;
71800;SDS011;59647;55.838;37.292;2024-03-02T08:27:33;74.55;;;30.08;;
71800;SDS011;59647;55.838;37.292;2024-03-02T08:29:59;71.82;;;30.90;;
71800;SDS011;59647;55.838;37.292;2024-03-02T08:32:25;75.00;;;30.52;;
71800;SDS011;59647;55.838;37.292;2024-03-02T08:34:50;74.38;;;29.58;;
71800;SDS011;59647;55.838;37.292;2024-03-02T08:37:18;76.25;;;30.80;;
71800;SDS011;59647;55.838;37.292;2024-03-02T08:39:44;70.15;;;27.27;;
71800;SDS011;59647;55.838;37.292;2024-03-02T08:42:10;74.10;;;29.17;;
71800;SDS011;59647;55.838;37.292;2024-03-02T08:44:36;71.47;;;30.27;;
71800;SDS011;59647;55.838;37.292;2024-03-02T08:47:02;77.75;;;29.75;;
71800;SDS011;59647;55.838;37.292;2024-03-02T08:49:28;71.45;;;31.00;;
71800;SDS011;59647;55.838;37.292;2024-03-02T08:51:53;61.25;;;27.65;;
71800;SDS011;59647;55.838;37.292;2024-03-02T08:54:22;73.30;;;29.45;;
71800;SDS011;59647;55.838;37.292;2024-03-02T08:56:50;67.38;;;29.25;;
71800;SDS011;59647;55.838;37.292;2024-03-02T08:59:16;73.05;;;30.83;;
71800;SDS011;59647;55.838;37.292;2024-03-02T09:01:42;71.47;;;30.15;;
71800;SDS011;59647;55.838;37.292;2024-03-02T09:04:08;61.83;;;27.73;;
71800;SDS011;59647;55.838;37.292;2024-03-02T09:06:34;63.72;;;28.40;;
71800;SDS011;59647;55.838;37.292;2024-03-02T09:09:00;65.63;;;29.63;;
71800;SDS011;59647;55.838;37.292;2024-03-02T09:11:26;60.08;;;27.30;;
71800;SDS011;59647;55.838;37.292;2024-03-02T09:13:51;69.45;;;29.05;;
71800;SDS011;59647;55.838;37.292;2024-03-02T09:16:18;64.60;;;28.77;;
71800;SDS011;59647;55.838;37.292;2024-03-02T09:18:44;62.75;;;27.35;;
71800;SDS011;59647;55.838;37.292;2024-03-02T09:21:09;61.63;;;28.08;;
71800;SDS011;59647;55.838;37.292;2024-03-02T09:23:35;61.88;;;27.08;;
71800;SDS011;59647;55.838;37.292;2024-03-02T09:26:01;57.40;;;26.30;;
71800;SDS011;59647;55.838;37.292;2024-03-02T09:28:27;61.47;;;25.90;;
71800;SDS011;59647;55.838;37.292;2024-03-02T09:30:52;67.75;;;28.40;;
71800;SDS011;59647;55.838;37.292;2024-03-02T09:33:18;57.03;;;24.83;;
71800;SDS011;59647;55.838;37.292;2024-03-02T09:35:44;58.38;;;26.40;;
71800;SDS011;59647;55.838;37.292;2024-03-02T09:38:09;56.80;;;26.52;;
71800;SDS011;59647;55.838;37.292;2024-03-02T09:40:35;64.40;;;27.15;;
71800;SDS011;59647;55.838;37.292;2024-03-02T09:43:01;60.53;;;26.42;;
71800;SDS011;59647;55.838;37.292;2024-03-02T09:45:28;63.05;;;27.98;;
71800;SDS011;59647;55.838;37.292;2024-03-02T09:47:55;57.28;;;26.17;;
71800;SDS011;59647;55.838;37.292;2024-03-02T09:50:20;58.33;;;25.17;;
71800;SDS011;59647;55.838;37.292;2024-03-02T09:52:48;63.90;;;28.17;;
71800;SDS011;59647;55.838;37.292;2024-03-02T09:55:13;60.70;;;27.05;;
71800;SDS011;59647;55.838;37.292;2024-03-02T09:57:41;63.72;;;26.40;;
71800;SDS011;59647;55.838;37.292;2024-03-02T10:00:08;58.30;;;25.10;;
71800;SDS011;59647;55.838;37.292;2024-03-02T10:02:33;57.97;;;26.67;;
71800;SDS011;59647;55.838;37.292;2024-03-02T10:04:59;56.25;;;27.80;;
71800;SDS011;59647;55.838;37.292;2024-03-02T10:07:25;58.65;;;26.75;;
71800;SDS011;59647;55.838;37.292;2024-03-02T10:09:50;67.53;;;28.75;;
71800;SDS011;59647;55.838;37.292;2024-03-02T10:12:17;66.00;;;27.92;;
71800;SDS011;59647;55.838;37.292;2024-03-02T10:14:43;64.78;;;27.40;;
71800;SDS011;59647;55.838;37.292;2024-03-02T10:17:10;58.85;;;27.48;;
71800;SDS011;59647;55.838;37.292;2024-03-02T10:19:37;63.95;;;27.98;;
71800;SDS011;59647;55.838;37.292;2024-03-02T10:22:12;59.30;;;28.02;;
71800;SDS011;59647;55.838;37.292;2024-03-02T10:24:47;69.03;;;28.48;;
71800;SDS011;59647;55.838;37.292;2024-03-02T10:27:26;65.53;;;28.75;;
71800;SDS011;59647;55.838;37.292;2024-03-02T10:29:52;63.70;;;29.33;;
71800;SDS011;59647;55.838;37.292;2024-03-02T10:32:19;66.38;;;28.38;;
71800;SDS011;59647;55.838;37.292;2024-03-02T10:34:47;65.32;;;29.50;;
71800;SDS011;59647;55.838;37.292;2024-03-02T10:37:13;67.03;;;29.23;;
71800;SDS011;59647;55.838;37.292;2024-03-02T10:39:39;70.78;;;29.80;;
71800;SDS011;59647;55.838;37.292;2024-03-02T10:42:08;72.78;;;29.42;;
71800;SDS011;59647;55.838;37.292;2024-03-02T10:44:34;68.03;;;28.90;;
71800;SDS011;59647;55.838;37.292;2024-03-02T10:47:01;81.95;;;36.45;;
71800;SDS011;59647;55.838;37.292;2024-03-02T10:49:29;87.40;;;35.50;;
71800;SDS011;59647;55.838;37.292;2024-03-02T10:51:55;76.93;;;33.95;;
71800;SDS011;59647;55.838;37.292;2024-03-02T10:54:21;70.47;;;31.42;;
71800;SDS011;59647;55.838;37.292;2024-03-02T10:57:01;78.80;;;31.98;;
71800;SDS011;59647;55.838;37.292;2024-03-02T10:59:32;67.63;;;31.48;;
71800;SDS011;59647;55.838;37.292;2024-03-02T11:01:59;86.10;;;33.22;;
71800;SDS011;59647;55.838;37.292;2024-03-02T11:04:26;75.05;;;32.78;;
71800;SDS011;59647;55.838;37.292;2024-03-02T11:06:52;80.20;;;33.30;;
71800;SDS011;59647;55.838;37.292;2024-03-02T11:09:21;76.43;;;31.20;;
71800;SDS011;59647;55.838;37.292;2024-03-02T11:11:49;72.28;;;32.10;;
71800;SDS011;59647;55.838;37.292;2024-03-02T11:14:18;67.85;;;32.67;;
71800;SDS011;59647;55.838;37.292;2024-03-02T11:16:46;73.00;;;31.75;;
71800;SDS011;59647;55.838;37.292;2024-03-02T11:19:13;82.80;;;33.20;;
71800;SDS011;59647;55.838;37.292;2024-03-02T11:21:39;70.82;;;31.98;;
71800;SDS011;59647;55.838;37.292;2024-03-02T11:26:49;64.32;;;27.00;;
71800;SDS011;59647;55.838;37.292;2024-03-02T11:32:02;58.95;;;26.85;;
71800;SDS011;59647;55.838;37.292;2024-03-02T11:34:29;68.03;;;28.33;;
71800;SDS011;59647;55.838;37.292;2024-03-02T11:36:55;66.18;;;26.58;;
71800;SDS011;59647;55.838;37.292;2024-03-02T11:39:20;64.50;;;26.33;;
71800;SDS011;59647;55.838;37.292;2024-03-02T11:41:46;54.45;;;23.17;;
71800;SDS011;59647;55.838;37.292;2024-03-02T11:44:12;62.60;;;26.02;;
71800;SDS011;59647;55.838;37.292;2024-03-02T11:46:41;60.88;;;27.27;;
71800;SDS011;59647;55.838;37.292;2024-03-02T11:49:07;64.20;;;27.92;;
71800;SDS011;59647;55.838;37.292;2024-03-02T11:51:33;57.75;;;25.05;;
71800;SDS011;59647;55.838;37.292;2024-03-02T11:53:59;59.85;;;24.90;;
71800;SDS011;59647;55.838;37.292;2024-03-02T11:56:26;59.00;;;25.58;;
71800;SDS011;59647;55.838;37.292;2024-03-02T11:58:53;50.47;;;23.67;;
71800;SDS011;59647;55.838;37.292;2024-03-02T12:01:19;54.88;;;24.20;;
71800;SDS011;59647;55.838;37.292;2024-03-02T12:03:45;52.90;;;24.65;;
71800;SDS011;59647;55.838;37.292;2024-03-02T12:06:11;52.95;;;24.83;;
71800;SDS011;59647;55.838;37.292;2024-03-02T12:08:38;55.03;;;23.85;;
71800;SDS011;59647;55.838;37.292;2024-03-02T12:11:04;61.90;;;25.80;;
71800;SDS011;59647;55.838;37.292;2024-03-02T12:13:31;55.47;;;23.90;;
71800;SDS011;59647;55.838;37.292;2024-03-02T12:15:58;52.08;;;24.60;;
71800;SDS011;59647;55.838;37.292;2024-03-02T12:18:24;53.35;;;23.10;;
71800;SDS011;59647;55.838;37.292;2024-03-02T12:20:51;55.28;;;23.08;;
71800;SDS011;59647;55.838;37.292;2024-03-02T12:23:23;50.75;;;22.38;;
71800;SDS011;59647;55.838;37.292;2024-03-02T12:25:49;56.35;;;23.92;;
71800;SDS011;59647;55.838;37.292;2024-03-02T12:28:15;56.08;;;24.88;;
71800;SDS011;59647;55.838;37.292;2024-03-02T12:30:41;55.45;;;25.02;;
71800;SDS011;59647;55.838;37.292;2024-03-02T12:33:07;57.55;;;24.90;;
71800;SDS011;59647;55.838;37.292;2024-03-02T12:35:33;48.42;;;22.52;;
71800;SDS011;59647;55.838;37.292;2024-03-02T12:37:58;53.13;;;22.98;;
71800;SDS011;59647;55.838;37.292;2024-03-02T12:40:24;56.78;;;23.92;;
71800;SDS011;59647;55.838;37.292;2024-03-02T12:42:50;54.38;;;23.95;;
71800;SDS011;59647;55.838;37.292;2024-03-02T12:45:16;54.80;;;23.13;;
71800;SDS011;59647;55.838;37.292;2024-03-02T12:47:49;65.25;;;23.45;;
71800;SDS011;59647;55.838;37.292;2024-03-02T12:50:17;51.33;;;23.42;;
71800;SDS011;59647;55.838;37.292;2024-03-02T12:52:43;60.58;;;23.92;;
71800;SDS011;59647;55.838;37.292;2024-03-02T12:55:09;53.65;;;24.65;;
71800;SDS011;59647;55.838;37.292;2024-03-02T12:57:34;47.60;;;21.48;;
71800;SDS011;59647;55.838;37.292;2024-03-02T13:00:03;53.08;;;22.13;;
71800;SDS011;59647;55.838;37.292;2024-03-02T13:02:35;64.07;;;25.75;;
71800;SDS011;59647;55.838;37.292;2024-03-02T13:05:01;56.88;;;24.23;;
71800;SDS011;59647;55.838;37.292;2024-03-02T13:07:27;56.75;;;20.90;;
71800;SDS011;59647;55.838;37.292;2024-03-02T13:09:54;57.15;;;24.30;;
71800;SDS011;59647;55.838;37.292;2024-03-02T13:12:21;54.45;;;22.23;;
71800;SDS011;59647;55.838;37.292;2024-03-02T13:14:51;56.13;;;24.52;;
71800;SDS011;59647;55.838;37.292;2024-03-02T13:17:20;68.80;;;24.02;;
71800;SDS011;59647;55.838;37.292;2024-03-02T13:19:55;53.35;;;22.20;;
71800;SDS011;59647;55.838;37.292;2024-03-02T13:22:21;49.55;;;21.98;;
71800;SDS011;59647;55.838;37.292;2024-03-02T13:24:47;42.88;;;18.77;;
71800;SDS011;59647;55.838;37.292;2024-03-02T13:27:13;48.40;;;21.25;;
71800;SDS011;59647;55.838;37.292;2024-03-02T13:29:39;54.38;;;23.67;;
71800;SDS011;59647;55.838;37.292;2024-03-02T13:32:05;55.30;;;23.02;;
71800;SDS011;59647;55.838;37.292;2024-03-02T13:34:30;45.63;;;19.67;;
71800;SDS011;59647;55.838;37.292;2024-03-02T13:36:56;42.20;;;17.85;;
71800;SDS011;59647;55.838;37.292;2024-03-02T13:39:22;48.88;;;22.13;;
71800;SDS011;59647;55.838;37.292;2024-03-02T13:41:48;49.92;;;23.02;;
71800;SDS011;59647;55.838;37.292;2024-03-02T13:44:19;53.97;;;21.75;;
71800;SDS011;59647;55.838;37.292;2024-03-02T13:47:03;41.58;;;17.50;;
71800;SDS011;59647;55.838;37.292;2024-03-02T13:49:30;50.47;;;22.85;;
71800;SDS011;59647;55.838;37.292;2024-03-02T13:52:19;53.80;;;21.38;;
71800;SDS011;59647;55.838;37.292;2024-03-02T13:54:46;64.22;;;24.20;;
71800;SDS011;59647;55.838;37.292;2024-03-02T13:57:12;50.15;;;20.92;;
71800;SDS011;59647;55.838;37.292;2024-03-02T13:59:57;51.85;;;21.27;;
71800;SDS011;59647;55.838;37.292;2024-03-02T14:02:22;53.40;;;21.52;;
71800;SDS011;59647;55.838;37.292;2024-03-02T14:04:48;59.17;;;22.58;;
71800;SDS011;59647;55.838;37.292;2024-03-02T14:07:17;45.03;;;21.13;;
71800;SDS011;59647;55.838;37.292;2024-03-02T14:09:42;54.92;;;20.00;;
71800;SDS011;59647;55.838;37.292;2024-03-02T14:12:08;45.72;;;19.67;;
71800;SDS011;59647;55.838;37.292;2024-03-02T14:14:34;48.08;;;22.05;;